Time;durP1;ratioP1;P1;durP2;ratioP2;P2;SDS_P1;SDS_P2;PMS_P1;PMS_P2;Temp;Humidity;BMP_temperature;BMP_pressure;BME280_temperature;BME280_humidity;BME280_pressure;Samples;Min_cycle;Max_cycle;Signal;HPM_P1;HPM_P2
2021/04/19 00:00:13;;;;;;;33.97;17.27;;;;;;;;;;4994228;28;20086;-63
2021/04/19 00:02:40;;;;;;;34.78;18.63;;;;;;;;;;4994021;28;20125;-63
2021/04/19 00:05:09;;;;;;;34.55;17.77;;;;;;;;;;4983007;28;20046;-63
2021/04/19 00:07:37;;;;;;;34.72;18.67;;;;;;;;;;4993331;28;20050;-63
2021/04/19 00:10:05;;;;;;;35.05;18.20;;;;;;;;;;4993113;28;20141;-63
2021/04/19 00:12:33;;;;;;;36.95;19.27;;;;;;;;;;4994232;28;20082;-63
2021/04/19 00:15:00;;;;;;;39.33;20.20;;;;;;;;;;4993444;28;20986;-63
2021/04/19 00:17:28;;;;;;;38.78;19.20;;;;;;;;;;4975544;28;20398;-63
2021/04/19 00:19:56;;;;;;;38.45;18.40;;;;;;;;;;4993905;28;20081;-62
2021/04/19 00:22:23;;;;;;;35.30;17.90;;;;;;;;;;4992536;28;20129;-62
2021/04/19 00:24:52;;;;;;;34.30;17.75;;;;;;;;;;4993187;28;20090;-63
2021/04/19 00:27:19;;;;;;;41.17;19.95;;;;;;;;;;4984394;28;20042;-63
2021/04/19 00:29:47;;;;;;;38.13;19.10;;;;;;;;;;4993680;28;20050;-62
2021/04/19 00:32:18;;;;;;;36.25;18.20;;;;;;;;;;4991356;28;20051;-62
2021/04/19 00:34:45;;;;;;;34.20;18.80;;;;;;;;;;4986706;28;20055;-62
2021/04/19 00:37:14;;;;;;;34.10;18.33;;;;;;;;;;4993327;28;20061;-62
2021/04/19 00:39:41;;;;;;;32.45;17.90;;;;;;;;;;4993288;28;20128;-62
2021/04/19 00:42:09;;;;;;;33.53;18.23;;;;;;;;;;4992609;28;20138;-62
2021/04/19 00:44:37;;;;;;;36.67;17.70;;;;;;;;;;4993331;28;20051;-62
2021/04/19 00:47:05;;;;;;;37.42;18.60;;;;;;;;;;4992690;28;20508;-62
2021/04/19 00:49:32;;;;;;;32.97;17.60;;;;;;;;;;4992887;28;20046;-62
2021/04/19 00:52:00;;;;;;;35.10;18.13;;;;;;;;;;4993078;28;20078;-63
2021/04/19 00:54:28;;;;;;;34.80;17.80;;;;;;;;;;4993744;28;20406;-62
2021/04/19 00:56:56;;;;;;;35.97;17.73;;;;;;;;;;4992114;28;20081;-62
2021/04/19 00:59:24;;;;;;;37.95;19.08;;;;;;;;;;4974112;28;20557;-62
2021/04/19 01:01:52;;;;;;;39.92;19.67;;;;;;;;;;5007986;23;20042;-67
2021/04/19 01:04:19;;;;;;;35.00;18.00;;;;;;;;;;4976969;28;20046;-67
2021/04/19 01:06:47;;;;;;;37.08;18.55;;;;;;;;;;4977525;28;20129;-68
2021/04/19 01:09:14;;;;;;;35.78;18.15;;;;;;;;;;4973457;28;20141;-68
2021/04/19 01:11:42;;;;;;;33.15;17.50;;;;;;;;;;4969484;28;20135;-68
2021/04/19 01:14:11;;;;;;;36.03;17.10;;;;;;;;;;4955111;28;20094;-67
2021/04/19 01:16:39;;;;;;;37.15;18.50;;;;;;;;;;4966178;28;20053;-67
2021/04/19 01:19:07;;;;;;;33.42;17.90;;;;;;;;;;4973228;28;20450;-68
2021/04/19 01:21:35;;;;;;;36.97;18.77;;;;;;;;;;4972145;28;20070;-68
2021/04/19 01:24:02;;;;;;;33.53;17.25;;;;;;;;;;4973082;28;20141;-68
2021/04/19 01:26:30;;;;;;;38.00;19.30;;;;;;;;;;4968437;28;20142;-68
2021/04/19 01:28:57;;;;;;;36.95;19.92;;;;;;;;;;4973078;28;20049;-68
2021/04/19 01:31:24;;;;;;;36.13;19.00;;;;;;;;;;4972687;28;20113;-67
2021/04/19 01:33:52;;;;;;;32.10;16.85;;;;;;;;;;4971709;28;20043;-67
2021/04/19 01:36:22;;;;;;;34.50;17.80;;;;;;;;;;4972299;28;20038;-67
2021/04/19 01:38:51;;;;;;;35.63;18.20;;;;;;;;;;4958435;28;20265;-67
2021/04/19 01:41:18;;;;;;;36.97;18.23;;;;;;;;;;4963569;28;20109;-68
2021/04/19 01:43:46;;;;;;;33.92;17.40;;;;;;;;;;4973046;28;20078;-67
2021/04/19 01:46:13;;;;;;;35.45;18.63;;;;;;;;;;4973317;28;20534;-67
2021/04/19 01:48:41;;;;;;;36.15;18.65;;;;;;;;;;4972307;28;20055;-67
2021/04/19 01:51:09;;;;;;;35.40;17.70;;;;;;;;;;4974120;28;20122;-68
2021/04/19 01:53:37;;;;;;;37.28;18.23;;;;;;;;;;4973553;28;20050;-67
2021/04/19 01:56:06;;;;;;;34.00;18.60;;;;;;;;;;4972657;28;20138;-68
2021/04/19 01:58:33;;;;;;;34.60;18.10;;;;;;;;;;4971478;28;20042;-67
2021/04/19 02:01:02;;;;;;;33.65;17.60;;;;;;;;;;4972606;28;20050;-67
2021/04/19 02:03:37;;;;;;;34.78;18.17;;;;;;;;;;4972647;28;20055;-68
2021/04/19 02:06:06;;;;;;;33.70;18.05;;;;;;;;;;4972546;28;20050;-67
2021/04/19 02:08:36;;;;;;;32.60;16.83;;;;;;;;;;4972522;28;20074;-68
2021/04/19 02:11:17;;;;;;;33.28;17.98;;;;;;;;;;4971530;28;20047;-67
2021/04/19 02:13:46;;;;;;;34.60;17.25;;;;;;;;;;4972833;28;20109;-68
2021/04/19 02:16:18;;;;;;;34.55;18.17;;;;;;;;;;4971428;28;20648;-67
2021/04/19 02:18:49;;;;;;;38.88;18.80;;;;;;;;;;4971684;28;20078;-67
2021/04/19 02:21:20;;;;;;;36.67;19.25;;;;;;;;;;4972600;28;20395;-67
2021/04/19 02:23:49;;;;;;;36.28;19.33;;;;;;;;;;4972154;28;20132;-67
2021/04/19 02:26:20;;;;;;;38.33;18.48;;;;;;;;;;4971979;28;20074;-67
2021/04/19 02:28:51;;;;;;;40.13;18.55;;;;;;;;;;4935805;28;20139;-67
2021/04/19 02:31:20;;;;;;;37.25;18.17;;;;;;;;;;4952867;29;20586;-67
2021/04/19 02:33:49;;;;;;;36.85;18.40;;;;;;;;;;4951286;29;20071;-67
2021/04/19 02:36:16;;;;;;;34.65;18.27;;;;;;;;;;4951810;29;20047;-68
2021/04/19 02:38:47;;;;;;;35.22;18.65;;;;;;;;;;4962502;28;20373;-68
2021/04/19 02:41:15;;;;;;;34.45;17.50;;;;;;;;;;4953303;28;20082;-67
2021/04/19 02:43:44;;;;;;;36.80;18.42;;;;;;;;;;4957357;28;20081;-68
2021/04/19 02:46:12;;;;;;;35.78;18.52;;;;;;;;;;4970167;28;20126;-67
2021/04/19 02:48:40;;;;;;;36.30;18.27;;;;;;;;;;4966087;28;20058;-67
2021/04/19 02:51:09;;;;;;;35.85;18.10;;;;;;;;;;4985019;28;20578;-67
2021/04/19 02:53:41;;;;;;;34.22;17.98;;;;;;;;;;4969682;28;20133;-67
2021/04/19 02:56:09;;;;;;;32.95;17.15;;;;;;;;;;4971828;28;20051;-67
2021/04/19 02:58:39;;;;;;;38.33;17.40;;;;;;;;;;4952143;28;20087;-68
2021/04/19 03:01:10;;;;;;;33.83;17.25;;;;;;;;;;4953305;29;20051;-67
2021/04/19 03:03:42;;;;;;;31.58;17.50;;;;;;;;;;4949089;29;20084;-67
2021/04/19 03:06:10;;;;;;;37.13;18.30;;;;;;;;;;4949208;29;20058;-68
2021/04/19 03:08:39;;;;;;;32.13;17.35;;;;;;;;;;4920782;29;20060;-68
2021/04/19 03:11:09;;;;;;;35.65;18.42;;;;;;;;;;4931143;29;20055;-68
2021/04/19 03:13:38;;;;;;;36.22;17.60;;;;;;;;;;4930849;29;20079;-68
2021/04/19 03:16:06;;;;;;;33.95;17.52;;;;;;;;;;4933363;29;20455;-68
2021/04/19 03:18:36;;;;;;;35.80;18.02;;;;;;;;;;4933309;29;20048;-67
2021/04/19 03:21:07;;;;;;;32.75;16.65;;;;;;;;;;4930550;29;20138;-67
2021/04/19 03:23:36;;;;;;;32.83;17.77;;;;;;;;;;4922302;29;20210;-68
2021/04/19 03:26:04;;;;;;;41.63;19.02;;;;;;;;;;4923608;29;20146;-67
2021/04/19 03:28:33;;;;;;;33.35;17.20;;;;;;;;;;4932177;29;20044;-68
2021/04/19 03:31:03;;;;;;;35.42;18.33;;;;;;;;;;4932204;29;20546;-67
2021/04/19 03:33:31;;;;;;;39.20;17.95;;;;;;;;;;4922955;29;20064;-68
2021/04/19 03:36:00;;;;;;;37.88;18.40;;;;;;;;;;4923536;29;20102;-68
2021/04/19 03:38:28;;;;;;;40.13;18.65;;;;;;;;;;4917058;29;20421;-69
2021/04/19 03:40:57;;;;;;;39.42;18.25;;;;;;;;;;4932831;29;20499;-67
2021/04/19 03:43:25;;;;;;;35.03;18.02;;;;;;;;;;4919371;29;20063;-67
2021/04/19 03:45:55;;;;;;;36.88;17.27;;;;;;;;;;4932493;29;20060;-67
2021/04/19 03:48:24;;;;;;;31.92;16.20;;;;;;;;;;4918446;29;20488;-67
2021/04/19 03:50:56;;;;;;;35.55;16.60;;;;;;;;;;4936149;29;20130;-67
2021/04/19 03:53:25;;;;;;;33.03;17.45;;;;;;;;;;4929482;29;20079;-67
2021/04/19 03:55:52;;;;;;;33.95;16.63;;;;;;;;;;4933644;29;20123;-68
2021/04/19 03:58:20;;;;;;;38.10;19.23;;;;;;;;;;4932702;29;20086;-68
2021/04/19 04:00:48;;;;;;;36.38;16.58;;;;;;;;;;4933091;29;20107;-67
2021/04/19 04:03:18;;;;;;;32.88;17.17;;;;;;;;;;4947775;29;20106;-67
2021/04/19 04:05:47;;;;;;;35.60;17.52;;;;;;;;;;4951094;29;20059;-68
2021/04/19 04:08:15;;;;;;;36.85;18.48;;;;;;;;;;4966312;28;20050;-68
2021/04/19 04:10:43;;;;;;;36.58;19.38;;;;;;;;;;4975220;28;20142;-68
2021/04/19 04:13:11;;;;;;;38.60;18.27;;;;;;;;;;4974102;28;20050;-68
2021/04/19 04:15:48;;;;;;;38.20;18.67;;;;;;;;;;4967383;28;20130;-67
2021/04/19 04:18:16;;;;;;;37.67;18.25;;;;;;;;;;4966074;28;20047;-67
2021/04/19 04:20:44;;;;;;;38.50;19.33;;;;;;;;;;4974908;28;20058;-68
2021/04/19 04:23:11;;;;;;;38.70;18.50;;;;;;;;;;4974112;28;20055;-68
2021/04/19 04:25:39;;;;;;;35.42;17.88;;;;;;;;;;4974562;28;20467;-68
2021/04/19 04:28:08;;;;;;;37.22;18.75;;;;;;;;;;4970110;28;20483;-67
2021/04/19 04:30:36;;;;;;;31.92;18.38;;;;;;;;;;4973513;28;20086;-68
2021/04/19 04:33:03;;;;;;;35.10;18.20;;;;;;;;;;4974378;28;20070;-68
2021/04/19 04:35:31;;;;;;;38.38;17.92;;;;;;;;;;4974560;28;20069;-68
2021/04/19 04:37:58;;;;;;;36.60;18.90;;;;;;;;;;4974898;28;20058;-68
2021/04/19 04:40:26;;;;;;;42.45;20.27;;;;;;;;;;4971832;28;20116;-68
2021/04/19 04:42:56;;;;;;;34.17;17.77;;;;;;;;;;4975013;28;20086;-68
2021/04/19 04:45:24;;;;;;;41.47;19.75;;;;;;;;;;4965698;28;20562;-68
2021/04/19 04:47:55;;;;;;;40.63;20.23;;;;;;;;;;4964528;28;20047;-68
2021/04/19 04:50:25;;;;;;;36.22;18.70;;;;;;;;;;4958342;28;20051;-68
2021/04/19 04:52:55;;;;;;;35.75;17.50;;;;;;;;;;4939714;29;20056;-68
2021/04/19 04:55:24;;;;;;;39.40;19.13;;;;;;;;;;4949019;29;20153;-68
2021/04/19 04:57:52;;;;;;;33.83;18.70;;;;;;;;;;4953779;29;20143;-69
2021/04/19 05:00:21;;;;;;;37.90;19.40;;;;;;;;;;4953296;29;20400;-68
2021/04/19 05:02:50;;;;;;;36.58;18.95;;;;;;;;;;4955521;29;20055;-68
2021/04/19 05:05:18;;;;;;;36.05;18.38;;;;;;;;;;4950085;29;20051;-68
2021/04/19 05:07:46;;;;;;;38.60;19.70;;;;;;;;;;4958736;28;20145;-69
2021/04/19 05:10:14;;;;;;;42.10;19.02;;;;;;;;;;4972497;28;20058;-67
2021/04/19 05:12:42;;;;;;;41.47;19.75;;;;;;;;;;4973561;28;20074;-67
2021/04/19 05:15:12;;;;;;;40.60;20.48;;;;;;;;;;4973309;28;20167;-67
2021/04/19 05:17:40;;;;;;;40.08;20.02;;;;;;;;;;4967732;28;20450;-68
2021/04/19 05:20:10;;;;;;;42.85;20.48;;;;;;;;;;4961245;28;20451;-68
2021/04/19 05:22:38;;;;;;;43.35;20.02;;;;;;;;;;4971914;28;20066;-68
2021/04/19 05:25:06;;;;;;;40.75;18.95;;;;;;;;;;4969172;28;20491;-68
2021/04/19 05:27:34;;;;;;;43.92;20.95;;;;;;;;;;4972412;28;20058;-68
2021/04/19 05:30:01;;;;;;;42.60;21.08;;;;;;;;;;4960328;28;20670;-68
2021/04/19 05:32:29;;;;;;;42.47;21.10;;;;;;;;;;4976111;28;20047;-69
2021/04/19 05:34:57;;;;;;;42.10;20.67;;;;;;;;;;4970909;28;20105;-69
2021/04/19 05:37:29;;;;;;;45.35;22.20;;;;;;;;;;4971634;28;20130;-69
2021/04/19 05:39:57;;;;;;;39.13;19.98;;;;;;;;;;4968920;28;20543;-70
2021/04/19 05:42:24;;;;;;;44.08;20.13;;;;;;;;;;4971085;28;20121;-69
2021/04/19 05:44:52;;;;;;;39.65;20.30;;;;;;;;;;4968469;28;20574;-69
2021/04/19 05:47:20;;;;;;;40.47;19.45;;;;;;;;;;4973415;28;20554;-69
2021/04/19 05:49:48;;;;;;;48.05;21.15;;;;;;;;;;4973377;28;20098;-70
2021/04/19 05:52:19;;;;;;;40.70;21.00;;;;;;;;;;4970754;28;20051;-69
2021/04/19 05:54:47;;;;;;;41.53;21.75;;;;;;;;;;4971793;28;20117;-69
2021/04/19 05:57:17;;;;;;;40.92;19.80;;;;;;;;;;4972221;28;20450;-69
2021/04/19 05:59:55;;;;;;;39.25;20.48;;;;;;;;;;4967845;28;20051;-69
2021/04/19 06:02:30;;;;;;;43.22;21.50;;;;;;;;;;4970327;28;20051;-71
2021/04/19 06:05:04;;;;;;;45.90;21.30;;;;;;;;;;1441302;28;10022661;-70
2021/04/19 06:07:36;;;;;;;39.13;20.92;;;;;;;;;;3942811;28;10000994;-69
2021/04/19 06:10:06;;;;;;;43.88;21.15;;;;;;;;;;4963148;28;20054;-69
2021/04/19 06:12:36;;;;;;;45.67;21.08;;;;;;;;;;4970546;28;20078;-69
2021/04/19 06:15:09;;;;;;;42.17;21.50;;;;;;;;;;4989818;28;20066;-71
2021/04/19 06:17:37;;;;;;;42.92;21.83;;;;;;;;;;4973766;28;20051;-69
2021/04/19 06:20:05;;;;;;;39.03;20.85;;;;;;;;;;4964212;28;20051;-69
2021/04/19 06:22:33;;;;;;;44.40;21.63;;;;;;;;;;4969785;28;20078;-69
2021/04/19 06:25:00;;;;;;;43.75;21.80;;;;;;;;;;4968750;28;20504;-70
2021/04/19 06:27:29;;;;;;;37.53;19.85;;;;;;;;;;4955151;28;20110;-69
2021/04/19 06:29:56;;;;;;;37.63;20.85;;;;;;;;;;4944287;29;20070;-69
2021/04/19 06:32:25;;;;;;;41.38;21.67;;;;;;;;;;4952449;29;20078;-71
2021/04/19 06:34:53;;;;;;;43.30;21.58;;;;;;;;;;4950504;29;20102;-70
2021/04/19 06:37:21;;;;;;;42.10;21.52;;;;;;;;;;4955254;28;20054;-68
2021/04/19 06:39:49;;;;;;;41.88;21.92;;;;;;;;;;4969742;28;20101;-69
2021/04/19 06:42:16;;;;;;;38.95;21.25;;;;;;;;;;4971204;28;20058;-67
2021/04/19 06:44:46;;;;;;;45.95;22.02;;;;;;;;;;4966634;28;20454;-68
2021/04/19 06:47:14;;;;;;;48.15;22.10;;;;;;;;;;4966564;28;20062;-67
2021/04/19 06:49:46;;;;;;;44.30;21.58;;;;;;;;;;4953709;28;20043;-68
2021/04/19 06:52:14;;;;;;;42.42;21.73;;;;;;;;;;4968946;28;20143;-69
2021/04/19 06:54:42;;;;;;;39.38;21.10;;;;;;;;;;4951410;28;20046;-68
2021/04/19 06:57:10;;;;;;;45.22;21.95;;;;;;;;;;4941604;28;20118;-69
2021/04/19 06:59:38;;;;;;;44.15;22.75;;;;;;;;;;4951627;29;20047;-68
2021/04/19 07:02:08;;;;;;;52.78;22.17;;;;;;;;;;4938951;29;20063;-68
2021/04/19 07:04:37;;;;;;;43.67;21.88;;;;;;;;;;4949995;29;20054;-68
2021/04/19 07:07:05;;;;;;;38.30;21.77;;;;;;;;;;4950743;28;20066;-68
2021/04/19 07:09:36;;;;;;;42.78;22.25;;;;;;;;;;4942943;28;20479;-68
2021/04/19 07:12:05;;;;;;;44.28;22.42;;;;;;;;;;4937098;29;20051;-69
2021/04/19 07:14:34;;;;;;;42.13;21.55;;;;;;;;;;4935013;29;20126;-68
2021/04/19 07:17:05;;;;;;;43.72;20.83;;;;;;;;;;4934795;29;20054;-69
2021/04/19 07:19:34;;;;;;;42.45;22.83;;;;;;;;;;4945540;29;20055;-69
2021/04/19 07:22:05;;;;;;;41.55;21.20;;;;;;;;;;4946716;28;20064;-68
2021/04/19 07:24:35;;;;;;;39.42;20.60;;;;;;;;;;4933520;29;20159;-70
2021/04/19 07:27:04;;;;;;;40.80;21.52;;;;;;;;;;4943185;28;20400;-68
2021/04/19 07:29:32;;;;;;;41.85;22.42;;;;;;;;;;4933720;29;20090;-69
2021/04/19 07:32:01;;;;;;;46.22;24.02;;;;;;;;;;4940058;28;20039;-68
2021/04/19 07:34:30;;;;;;;47.47;23.13;;;;;;;;;;4945392;28;20062;-68
2021/04/19 07:37:00;;;;;;;39.03;21.27;;;;;;;;;;4953768;28;20131;-71
2021/04/19 07:39:29;;;;;;;41.67;21.15;;;;;;;;;;4945944;29;20059;-69
2021/04/19 07:41:58;;;;;;;44.38;23.00;;;;;;;;;;4949536;28;20043;-68
2021/04/19 07:44:37;;;;;;;46.72;21.63;;;;;;;;;;4941961;29;20047;-69
2021/04/19 07:47:21;;;;;;;40.22;21.45;;;;;;;;;;4937619;29;20056;-69
2021/04/19 07:49:58;;;;;;;42.67;22.00;;;;;;;;;;4943930;28;20102;-69
2021/04/19 07:52:28;;;;;;;46.45;21.42;;;;;;;;;;4951180;28;20110;-68
2021/04/19 07:55:10;;;;;;;45.70;22.63;;;;;;;;;;4951359;29;20090;-69
2021/04/19 07:57:58;;;;;;;45.85;22.67;;;;;;;;;;4943109;29;20053;-69
2021/04/19 08:00:31;;;;;;;43.17;20.90;;;;;;;;;;4952324;29;20526;-68
2021/04/19 08:02:59;;;;;;;43.33;22.25;;;;;;;;;;4945628;29;20051;-70
2021/04/19 08:05:31;;;;;;;39.70;21.25;;;;;;;;;;4954831;29;20044;-69
2021/04/19 08:07:59;;;;;;;35.08;20.08;;;;;;;;;;4951383;29;20051;-69
2021/04/19 08:10:27;;;;;;;42.42;21.48;;;;;;;;;;4954855;28;20058;-68
2021/04/19 08:13:01;;;;;;;40.50;19.85;;;;;;;;;;4954724;29;20051;-68
2021/04/19 08:15:29;;;;;;;36.05;18.70;;;;;;;;;;4955144;29;20051;-70
2021/04/19 08:18:00;;;;;;;39.72;19.63;;;;;;;;;;4937959;29;20496;-68
2021/04/19 08:20:29;;;;;;;38.50;19.13;;;;;;;;;;4936006;28;20452;-69
2021/04/19 08:23:09;;;;;;;38.28;19.75;;;;;;;;;;4949490;28;20142;-69
2021/04/19 08:25:41;;;;;;;35.83;19.10;;;;;;;;;;4951953;28;20484;-69
2021/04/19 08:28:10;;;;;;;34.72;18.90;;;;;;;;;;4948965;29;20051;-69
2021/04/19 08:30:40;;;;;;;38.70;20.23;;;;;;;;;;4946755;29;20047;-70
2021/04/19 08:33:08;;;;;;;36.55;19.40;;;;;;;;;;4955510;29;20055;-70
2021/04/19 08:35:36;;;;;;;40.08;20.33;;;;;;;;;;4950195;29;20558;-69
2021/04/19 08:38:05;;;;;;;34.55;19.65;;;;;;;;;;4955349;28;20447;-69
2021/04/19 08:40:35;;;;;;;37.22;21.10;;;;;;;;;;4972198;28;20134;-69
2021/04/19 08:43:07;;;;;;;40.20;20.33;;;;;;;;;;4968641;28;20078;-70
2021/04/19 08:45:35;;;;;;;31.95;18.25;;;;;;;;;;4968078;28;20093;-69
2021/04/19 08:48:03;;;;;;;34.67;19.45;;;;;;;;;;4972203;28;20138;-71
2021/04/19 08:50:31;;;;;;;38.53;20.25;;;;;;;;;;4968881;28;20079;-69
2021/04/19 08:52:59;;;;;;;34.92;17.38;;;;;;;;;;4973069;28;20610;-66
2021/04/19 08:55:27;;;;;;;35.67;17.52;;;;;;;;;;4976763;28;20517;-67
2021/04/19 08:57:59;;;;;;;37.75;17.23;;;;;;;;;;4957722;28;20549;-67
2021/04/19 09:00:27;;;;;;;31.50;17.15;;;;;;;;;;4966540;28;20050;-67
2021/04/19 09:02:59;;;;;;;30.63;17.17;;;;;;;;;;4977436;28;20109;-67
2021/04/19 09:05:28;;;;;;;33.58;18.88;;;;;;;;;;4974613;28;20078;-67
2021/04/19 09:08:06;;;;;;;31.27;18.33;;;;;;;;;;4964318;28;20053;-67
2021/04/19 09:10:48;;;;;;;30.52;16.98;;;;;;;;;;4950732;29;20101;-67
2021/04/19 09:13:31;;;;;;;39.92;18.85;;;;;;;;;;4945956;28;20107;-67
2021/04/19 09:16:14;;;;;;;36.00;17.98;;;;;;;;;;4946769;29;20055;-67
2021/04/19 09:18:44;;;;;;;34.92;17.38;;;;;;;;;;4946682;28;20343;-67
2021/04/19 09:21:32;;;;;;;36.85;17.70;;;;;;;;;;4945196;28;20055;-67
2021/04/19 09:24:01;;;;;;;34.28;17.25;;;;;;;;;;4946524;29;20188;-66
2021/04/19 09:26:45;;;;;;;29.20;15.95;;;;;;;;;;4940767;28;20593;-66
2021/04/19 09:29:35;;;;;;;33.97;16.50;;;;;;;;;;4932366;29;20043;-66
2021/04/19 09:32:04;;;;;;;32.90;15.82;;;;;;;;;;4949090;29;20047;-66
2021/04/19 09:34:53;;;;;;;27.75;15.13;;;;;;;;;;4948374;28;20047;-66
2021/04/19 09:37:23;;;;;;;29.75;16.67;;;;;;;;;;4943035;28;20059;-66
2021/04/19 09:40:00;;;;;;;35.75;17.00;;;;;;;;;;4947609;28;20439;-66
2021/04/19 09:42:47;;;;;;;29.42;16.27;;;;;;;;;;4942557;29;20203;-66
2021/04/19 09:45:36;;;;;;;28.25;16.67;;;;;;;;;;4933256;29;20074;-66
2021/04/19 09:48:04;;;;;;;34.35;17.77;;;;;;;;;;4941798;29;20055;-66
2021/04/19 09:50:32;;;;;;;32.95;17.30;;;;;;;;;;4947574;28;20051;-67
2021/04/19 09:53:00;;;;;;;32.72;18.15;;;;;;;;;;4945088;29;20430;-67
2021/04/19 09:55:28;;;;;;;30.67;16.05;;;;;;;;;;4946850;29;20058;-67
2021/04/19 09:57:56;;;;;;;32.65;16.48;;;;;;;;;;4937817;28;20431;-67
2021/04/19 10:00:25;;;;;;;25.88;14.85;;;;;;;;;;4933099;29;20055;-67
2021/04/19 10:02:53;;;;;;;26.75;14.65;;;;;;;;;;4943127;28;20126;-67
2021/04/19 10:05:21;;;;;;;27.05;14.48;;;;;;;;;;4964853;28;20576;-67
2021/04/19 10:07:49;;;;;;;23.60;14.20;;;;;;;;;;4960706;28;20058;-67
2021/04/19 10:10:19;;;;;;;27.67;14.20;;;;;;;;;;4965461;28;20066;-67
2021/04/19 10:12:48;;;;;;;25.60;14.07;;;;;;;;;;4963871;28;20503;-67
2021/04/19 10:15:19;;;;;;;26.63;14.82;;;;;;;;;;4948613;28;20051;-67
2021/04/19 10:17:48;;;;;;;27.55;14.88;;;;;;;;;;4955379;28;20058;-67
2021/04/19 10:20:19;;;;;;;24.65;14.23;;;;;;;;;;4952320;28;20043;-66
2021/04/19 10:22:47;;;;;;;25.98;14.15;;;;;;;;;;4962224;28;20303;-67
2021/04/19 10:25:15;;;;;;;28.58;14.15;;;;;;;;;;4959315;28;20065;-67
2021/04/19 10:27:48;;;;;;;21.17;12.05;;;;;;;;;;4957779;28;20605;-67
2021/04/19 10:30:19;;;;;;;27.42;13.77;;;;;;;;;;4967735;28;20051;-67
2021/04/19 10:32:47;;;;;;;25.75;13.80;;;;;;;;;;4966480;28;20144;-67
2021/04/19 10:35:30;;;;;;;23.60;12.98;;;;;;;;;;4960953;28;20082;-66
2021/04/19 10:38:12;;;;;;;23.67;12.60;;;;;;;;;;4953183;28;20518;-66
2021/04/19 10:40:40;;;;;;;22.65;12.93;;;;;;;;;;4953376;28;20058;-67
2021/04/19 10:43:09;;;;;;;20.90;11.73;;;;;;;;;;4964149;28;20081;-67
2021/04/19 10:45:37;;;;;;;19.75;11.25;;;;;;;;;;4966934;28;20050;-67
2021/04/19 10:48:18;;;;;;;19.08;10.20;;;;;;;;;;4966366;28;20049;-67
2021/04/19 10:50:47;;;;;;;23.88;11.18;;;;;;;;;;4967298;28;20046;-67
2021/04/19 10:53:30;;;;;;;13.27;8.75;;;;;;;;;;4963648;28;20055;-67
2021/04/19 10:55:59;;;;;;;18.20;10.02;;;;;;;;;;4962747;28;20051;-67
2021/04/19 10:58:27;;;;;;;19.55;10.65;;;;;;;;;;4962669;28;20051;-67
2021/04/19 11:00:55;;;;;;;20.05;10.40;;;;;;;;;;4963339;28;20058;-67
2021/04/19 11:03:24;;;;;;;18.63;10.75;;;;;;;;;;4966055;28;20055;-67
2021/04/19 11:05:54;;;;;;;18.70;10.45;;;;;;;;;;4962697;28;20074;-67
2021/04/19 11:08:37;;;;;;;17.70;9.63;;;;;;;;;;4964498;28;20042;-67
2021/04/19 11:11:20;;;;;;;25.33;10.10;;;;;;;;;;4956703;28;20057;-68
2021/04/19 11:13:48;;;;;;;19.42;10.63;;;;;;;;;;4968969;28;20049;-67
2021/04/19 11:16:19;;;;;;;19.52;10.20;;;;;;;;;;4967155;28;20043;-67
2021/04/19 11:18:47;;;;;;;19.85;10.45;;;;;;;;;;4963437;28;20065;-67
2021/04/19 11:21:29;;;;;;;20.98;11.80;;;;;;;;;;4969796;28;20544;-67
2021/04/19 11:24:07;;;;;;;20.05;11.27;;;;;;;;;;4967772;28;20080;-67
2021/04/19 11:26:35;;;;;;;22.13;11.25;;;;;;;;;;4963618;28;20565;-68
2021/04/19 11:29:03;;;;;;;20.38;11.45;;;;;;;;;;4961403;28;20047;-67
2021/04/19 11:31:50;;;;;;;19.88;11.90;;;;;;;;;;4966312;28;20094;-68
2021/04/19 11:34:18;;;;;;;25.83;11.93;;;;;;;;;;4966143;28;20059;-66
2021/04/19 11:37:08;;;;;;;20.45;11.18;;;;;;;;;;4967569;28;20057;-67
2021/04/19 11:39:40;;;;;;;18.88;10.90;;;;;;;;;;4970311;28;20046;-67
2021/04/19 11:42:27;;;;;;;20.77;11.60;;;;;;;;;;4968707;28;20067;-67
2021/04/19 11:44:55;;;;;;;16.55;9.10;;;;;;;;;;4967307;28;20055;-69
2021/04/19 11:47:23;;;;;;;17.92;10.73;;;;;;;;;;4971724;28;20046;-66
2021/04/19 11:49:52;;;;;;;16.02;8.65;;;;;;;;;;4967596;28;20586;-68
2021/04/19 11:52:21;;;;;;;18.70;9.02;;;;;;;;;;4969477;28;20042;-74
2021/04/19 11:54:49;;;;;;;16.38;8.73;;;;;;;;;;4960117;28;20411;-71
2021/04/19 11:57:17;;;;;;;15.57;9.88;;;;;;;;;;4950517;28;20495;-70
2021/04/19 11:59:45;;;;;;;18.80;9.73;;;;;;;;;;4959596;28;20055;-71
2021/04/19 12:02:13;;;;;;;19.33;10.65;;;;;;;;;;4968267;28;20062;-71
2021/04/19 12:04:41;;;;;;;18.23;10.05;;;;;;;;;;4966125;28;20569;-71
2021/04/19 12:07:09;;;;;;;20.08;11.23;;;;;;;;;;4953524;28;20145;-73
2021/04/19 12:09:38;;;;;;;17.02;9.15;;;;;;;;;;4966843;28;20152;-71
2021/04/19 12:12:06;;;;;;;16.67;9.65;;;;;;;;;;4963116;28;20049;-71
2021/04/19 12:14:34;;;;;;;20.80;9.80;;;;;;;;;;4969542;28;20047;-72
2021/04/19 12:17:02;;;;;;;20.30;10.77;;;;;;;;;;4969100;28;20050;-75
2021/04/19 12:19:31;;;;;;;18.48;10.38;;;;;;;;;;4971863;28;20422;-72
2021/04/19 12:21:59;;;;;;;19.00;10.10;;;;;;;;;;4973356;28;20081;-75
2021/04/19 12:24:29;;;;;;;18.23;10.52;;;;;;;;;;4968445;28;20070;-70
2021/04/19 12:26:58;;;;;;;19.88;10.75;;;;;;;;;;4971480;28;20050;-70
2021/04/19 12:29:26;;;;;;;23.35;11.95;;;;;;;;;;4973275;28;20055;-71
2021/04/19 12:31:54;;;;;;;18.58;11.60;;;;;;;;;;4970504;28;20043;-70
2021/04/19 12:34:22;;;;;;;19.02;10.32;;;;;;;;;;4972350;28;20054;-71
2021/04/19 12:36:52;;;;;;;19.75;11.02;;;;;;;;;;4972378;28;20074;-70
2021/04/19 12:39:20;;;;;;;24.13;11.90;;;;;;;;;;4970357;28;20055;-71
2021/04/19 12:41:49;;;;;;;22.05;12.35;;;;;;;;;;4972851;28;20552;-71
2021/04/19 12:44:18;;;;;;;30.25;15.25;;;;;;;;;;4961378;28;20150;-72
2021/04/19 12:46:46;;;;;;;24.58;12.85;;;;;;;;;;4972124;28;20478;-71
2021/04/19 12:49:14;;;;;;;22.35;12.50;;;;;;;;;;4967093;28;20051;-71
2021/04/19 12:51:44;;;;;;;24.42;12.98;;;;;;;;;;4968796;28;20050;-71
2021/04/19 12:54:12;;;;;;;22.35;11.27;;;;;;;;;;4972181;28;20447;-71
2021/04/19 12:56:40;;;;;;;20.50;10.70;;;;;;;;;;4977804;28;20054;-71
2021/04/19 12:59:08;;;;;;;22.80;11.15;;;;;;;;;;4970271;28;20042;-70
2021/04/19 13:01:37;;;;;;;18.13;10.38;;;;;;;;;;4968636;28;20553;-70
2021/04/19 13:04:14;;;;;;;17.27;10.00;;;;;;;;;;4970900;28;20058;-69
2021/04/19 13:06:42;;;;;;;16.58;8.48;;;;;;;;;;4969270;28;20054;-69
2021/04/19 13:09:10;;;;;;;18.65;9.45;;;;;;;;;;4967784;28;20074;-70
2021/04/19 13:11:38;;;;;;;15.10;7.80;;;;;;;;;;4960768;28;20098;-71
2021/04/19 13:14:06;;;;;;;18.17;8.63;;;;;;;;;;4962885;28;20130;-70
2021/04/19 13:16:34;;;;;;;16.90;9.30;;;;;;;;;;4972280;28;20113;-70
2021/04/19 13:19:04;;;;;;;12.60;7.65;;;;;;;;;;4958983;28;20050;-70
2021/04/19 13:21:32;;;;;;;15.05;7.70;;;;;;;;;;4966926;28;20398;-70
2021/04/19 13:24:03;;;;;;;12.35;7.22;;;;;;;;;;4964261;28;20054;-70
2021/04/19 13:26:31;;;;;;;12.88;6.85;;;;;;;;;;4971458;28;20454;-69
2021/04/19 13:28:59;;;;;;;12.35;6.70;;;;;;;;;;4971338;28;20050;-69
2021/04/19 13:31:27;;;;;;;13.32;8.02;;;;;;;;;;4969629;28;20499;-69
2021/04/19 13:33:56;;;;;;;14.45;9.00;;;;;;;;;;4960402;28;20050;-69
2021/04/19 13:36:25;;;;;;;13.60;7.90;;;;;;;;;;4971472;28;20101;-69
2021/04/19 13:38:54;;;;;;;16.30;8.30;;;;;;;;;;4960917;28;20506;-70
2021/04/19 13:41:21;;;;;;;18.35;9.35;;;;;;;;;;4957904;28;20051;-69
2021/04/19 13:43:49;;;;;;;15.15;9.65;;;;;;;;;;4969865;28;20043;-70
2021/04/19 13:46:18;;;;;;;17.45;10.23;;;;;;;;;;4966409;28;20106;-71
2021/04/19 13:48:46;;;;;;;22.65;11.00;;;;;;;;;;4967727;28;20502;-70
2021/04/19 13:51:15;;;;;;;15.57;9.57;;;;;;;;;;4970934;28;20133;-69
2021/04/19 13:53:44;;;;;;;16.42;9.48;;;;;;;;;;4961664;28;20054;-69
2021/04/19 13:56:13;;;;;;;16.33;10.48;;;;;;;;;;4955619;28;20141;-69
2021/04/19 13:58:41;;;;;;;19.88;11.00;;;;;;;;;;4969683;28;20053;-69
2021/04/19 14:01:10;;;;;;;19.15;10.95;;;;;;;;;;4968267;28;20502;-69
2021/04/19 14:03:38;;;;;;;17.08;10.52;;;;;;;;;;4968525;28;20043;-68
2021/04/19 14:06:07;;;;;;;17.83;10.52;;;;;;;;;;4968408;28;20047;-68
2021/04/19 14:08:36;;;;;;;18.60;10.48;;;;;;;;;;4964161;28;20047;-70
2021/04/19 14:11:06;;;;;;;21.63;11.27;;;;;;;;;;4969565;28;20228;-70
2021/04/19 14:13:34;;;;;;;23.77;12.05;;;;;;;;;;4969492;28;20047;-67
2021/04/19 14:16:02;;;;;;;21.75;11.50;;;;;;;;;;4960165;28;20055;-69
2021/04/19 14:18:36;;;;;;;18.75;11.20;;;;;;;;;;4962728;28;20058;-69
2021/04/19 14:21:06;;;;;;;19.67;11.63;;;;;;;;;;4966972;28;20047;-69
2021/04/19 14:23:34;;;;;;;21.80;11.75;;;;;;;;;;4958402;28;20174;-68
2021/04/19 14:26:05;;;;;;;23.27;11.70;;;;;;;;;;4963987;28;20054;-69
2021/04/19 14:28:35;;;;;;;29.75;12.25;;;;;;;;;;4965803;28;20057;-70
2021/04/19 14:31:03;;;;;;;21.95;11.52;;;;;;;;;;4970730;28;20043;-71
2021/04/19 14:33:31;;;;;;;22.45;12.13;;;;;;;;;;4970999;28;20490;-70